sensor_id;sensor_type;location;lat;lon;timestamp;pressure;altitude;pressure_sealevel;temperature;humidity
55317;BME280;41178;48.956;8.130;2024-01-11T00:04:00;100371.75;;;-1.15;41.37
55317;BME280;41178;48.956;8.130;2024-01-11T00:09:02;100387.50;;;-1.01;40.86
55317;BME280;41178;48.956;8.130;2024-01-11T00:14:03;100358.44;;;-1.12;41.51
55317;BME280;41178;48.956;8.130;2024-01-11T00:19:05;100343.72;;;-1.01;41.40
55317;BME280;41178;48.956;8.130;2024-01-11T00:24:07;100278.66;;;-0.55;41.05
55317;BME280;41178;48.956;8.130;2024-01-11T00:29:09;100348.28;;;-0.90;41.01
55317;BME280;41178;48.956;8.130;2024-01-11T00:34:11;100480.03;;;-1.10;40.54
55317;BME280;41178;48.956;8.130;2024-01-11T00:39:13;100510.00;;;-1.29;40.86
55317;BME280;41178;48.956;8.130;2024-01-11T00:44:14;100454.38;;;-1.21;41.06
55317;BME280;41178;48.956;8.130;2024-01-11T00:49:16;100625.25;;;-2.04;41.69
55317;BME280;41178;48.956;8.130;2024-01-11T00:54:18;100708.66;;;-2.44;42.14
55317;BME280;41178;48.956;8.130;2024-01-11T00:59:20;100323.16;;;-1.37;42.37
55317;BME280;41178;48.956;8.130;2024-01-11T01:04:22;100499.22;;;-2.17;42.94
55317;BME280;41178;48.956;8.130;2024-01-11T01:09:24;100621.38;;;-2.98;44.20
55317;BME280;41178;48.956;8.130;2024-01-11T01:14:25;100449.13;;;-2.44;43.82
55317;BME280;41178;48.956;8.130;2024-01-11T01:19:27;100515.97;;;-2.53;43.56
55317;BME280;41178;48.956;8.130;2024-01-11T01:24:30;100546.94;;;-2.77;43.97
55317;BME280;41178;48.956;8.130;2024-01-11T01:29:32;100443.03;;;-2.44;43.89
55317;BME280;41178;48.956;8.130;2024-01-11T01:34:34;100421.56;;;-2.35;43.64
55317;BME280;41178;48.956;8.130;2024-01-11T01:39:38;100375.66;;;-2.42;44.39
55317;BME280;41178;48.956;8.130;2024-01-11T01:44:41;100386.28;;;-2.14;43.47
55317;BME280;41178;48.956;8.130;2024-01-11T01:49:43;100202.94;;;-1.32;42.72
55317;BME280;41178;48.956;8.130;2024-01-11T01:54:47;100449.03;;;-2.58;44.37
55317;BME280;41178;48.956;8.130;2024-01-11T01:59:51;100370.25;;;-2.09;43.46
55317;BME280;41178;48.956;8.130;2024-01-11T02:04:56;100333.59;;;-1.80;43.40
55317;BME280;41178;48.956;8.130;2024-01-11T02:09:59;100410.28;;;-2.21;43.63
55317;BME280;41178;48.956;8.130;2024-01-11T02:15:01;100260.53;;;-1.58;43.09
55317;BME280;41178;48.956;8.130;2024-01-11T02:20:05;100270.94;;;-1.85;43.81
55317;BME280;41178;48.956;8.130;2024-01-11T02:25:07;100387.22;;;-1.84;42.78
55317;BME280;41178;48.956;8.130;2024-01-11T02:30:10;100671.34;;;-3.58;45.26
55317;BME280;41178;48.956;8.130;2024-01-11T02:35:14;100434.31;;;-2.61;44.31
55317;BME280;41178;48.956;8.130;2024-01-11T02:40:16;100351.94;;;-2.41;44.46
55317;BME280;41178;48.956;8.130;2024-01-11T02:45:18;100596.78;;;-3.50;45.42
55317;BME280;41178;48.956;8.130;2024-01-11T02:50:20;100531.47;;;-2.99;44.87
55317;BME280;41178;48.956;8.130;2024-01-11T02:55:24;100312.53;;;-2.23;44.19
55317;BME280;41178;48.956;8.130;2024-01-11T03:00:26;100528.13;;;-2.68;43.75
55317;BME280;41178;48.956;8.130;2024-01-11T03:05:28;100530.22;;;-2.92;44.71
55317;BME280;41178;48.956;8.130;2024-01-11T03:10:30;100330.47;;;-2.32;44.47
55317;BME280;41178;48.956;8.130;2024-01-11T03:15:31;100237.28;;;-1.93;44.04
55317;BME280;41178;48.956;8.130;2024-01-11T03:20:33;100409.28;;;-2.67;44.48
55317;BME280;41178;48.956;8.130;2024-01-11T03:25:35;100510.03;;;-2.90;44.28
55317;BME280;41178;48.956;8.130;2024-01-11T03:30:37;100549.06;;;-3.20;44.97
55317;BME280;41178;48.956;8.130;2024-01-11T03:35:38;100195.66;;;-1.56;43.13
55317;BME280;41178;48.956;8.130;2024-01-11T03:40:42;100471.09;;;-2.96;44.97
55317;BME280;41178;48.956;8.130;2024-01-11T03:45:43;100293.81;;;-2.63;45.38
55317;BME280;41178;48.956;8.130;2024-01-11T03:50:45;100303.38;;;-2.62;45.33
55317;BME280;41178;48.956;8.130;2024-01-11T03:55:47;100519.34;;;-3.54;46.09
55317;BME280;41178;48.956;8.130;2024-01-11T04:00:48;100393.38;;;-3.13;45.73
55317;BME280;41178;48.956;8.130;2024-01-11T04:05:50;100510.84;;;-3.59;45.69
55317;BME280;41178;48.956;8.130;2024-01-11T04:10:52;100526.75;;;-3.81;46.32
55317;BME280;41178;48.956;8.130;2024-01-11T04:15:54;100475.03;;;-3.57;46.29
55317;BME280;41178;48.956;8.130;2024-01-11T04:20:55;100327.47;;;-2.88;45.51
55317;BME280;41178;48.956;8.130;2024-01-11T04:25:57;100278.38;;;-2.84;45.89
55317;BME280;41178;48.956;8.130;2024-01-11T04:30:59;100469.03;;;-3.42;45.71
55317;BME280;41178;48.956;8.130;2024-01-11T04:36:01;100339.16;;;-3.11;45.75
55317;BME280;41178;48.956;8.130;2024-01-11T04:41:07;100420.22;;;-3.43;46.32
55317;BME280;41178;48.956;8.130;2024-01-11T04:46:16;100223.81;;;-2.61;45.48
55317;BME280;41178;48.956;8.130;2024-01-11T04:51:18;100500.16;;;-3.72;46.26
55317;BME280;41178;48.956;8.130;2024-01-11T04:56:20;100230.59;;;-2.73;45.65
55317;BME280;41178;48.956;8.130;2024-01-11T05:05:15;100194.81;;;-3.86;47.46
55317;BME280;41178;48.956;8.130;2024-01-11T05:10:17;100359.09;;;-4.29;47.71
55317;BME280;41178;48.956;8.130;2024-01-11T05:15:18;100195.47;;;-3.65;47.18
55317;BME280;41178;48.956;8.130;2024-01-11T05:20:20;100149.75;;;-3.42;47.37
55317;BME280;41178;48.956;8.130;2024-01-11T05:25:22;100184.34;;;-3.05;46.19
55317;BME280;41178;48.956;8.130;2024-01-11T05:30:23;100264.59;;;-3.53;47.16
55317;BME280;41178;48.956;8.130;2024-01-11T05:35:28;100137.44;;;-2.93;46.41
55317;BME280;41178;48.956;8.130;2024-01-11T05:40:30;100288.38;;;-3.24;45.89
55317;BME280;41178;48.956;8.130;2024-01-11T05:45:32;100214.94;;;-2.89;45.76
55317;BME280;41178;48.956;8.130;2024-01-11T05:50:48;100513.66;;;-4.18;47.26
55317;BME280;41178;48.956;8.130;2024-01-11T05:55:50;100431.00;;;-3.84;47.03
55317;BME280;41178;48.956;8.130;2024-01-11T06:00:55;100391.69;;;-3.82;47.29
55317;BME280;41178;48.956;8.130;2024-01-11T06:05:58;100358.66;;;-3.67;46.63
55317;BME280;41178;48.956;8.130;2024-01-11T06:11:00;100527.75;;;-4.60;48.38
55317;BME280;41178;48.956;8.130;2024-01-11T06:16:02;100251.84;;;-3.59;47.18
55317;BME280;41178;48.956;8.130;2024-01-11T06:21:05;100253.66;;;-3.77;47.83
55317;BME280;41178;48.956;8.130;2024-01-11T06:26:07;100243.22;;;-3.61;47.63
55317;BME280;41178;48.956;8.130;2024-01-11T06:31:09;100242.31;;;-3.60;47.63
55317;BME280;41178;48.956;8.130;2024-01-11T06:36:11;100172.50;;;-3.12;46.68
55317;BME280;41178;48.956;8.130;2024-01-11T06:41:14;100239.19;;;-3.51;47.53
55317;BME280;41178;48.956;8.130;2024-01-11T06:46:20;100296.88;;;-3.70;47.31
55317;BME280;41178;48.956;8.130;2024-01-11T06:51:23;100278.66;;;-3.71;47.85
55317;BME280;41178;48.956;8.130;2024-01-11T06:56:24;100357.25;;;-4.09;48.24
55317;BME280;41178;48.956;8.130;2024-01-11T07:01:26;100425.06;;;-4.24;47.99
55317;BME280;41178;48.956;8.130;2024-01-11T07:06:28;100459.41;;;-4.50;48.71
55317;BME280;41178;48.956;8.130;2024-01-11T07:11:30;100571.78;;;-4.92;48.72
55317;BME280;41178;48.956;8.130;2024-01-11T07:16:33;100364.66;;;-4.00;47.27
55317;BME280;41178;48.956;8.130;2024-01-11T07:21:35;100240.84;;;-3.66;47.59
55317;BME280;41178;48.956;8.130;2024-01-11T07:26:37;100442.56;;;-4.45;48.27
55317;BME280;41178;48.956;8.130;2024-01-11T07:31:39;100515.88;;;-4.87;48.95
55317;BME280;41178;48.956;8.130;2024-01-11T07:36:40;100687.75;;;-5.65;49.81
55317;BME280;41178;48.956;8.130;2024-01-11T07:41:42;100599.75;;;-5.38;49.61
55317;BME280;41178;48.956;8.130;2024-01-11T07:46:44;100364.38;;;-4.48;49.06
55317;BME280;41178;48.956;8.130;2024-01-11T07:51:54;100368.94;;;-4.34;48.52
55317;BME280;41178;48.956;8.130;2024-01-11T07:56:56;100383.34;;;-4.44;48.79
55317;BME280;41178;48.956;8.130;2024-01-11T08:01:58;100298.47;;;-4.01;48.60
55317;BME280;41178;48.956;8.130;2024-01-11T08:06:59;100431.22;;;-4.44;48.59
55317;BME280;41178;48.956;8.130;2024-01-11T08:12:01;100230.38;;;-3.66;48.31
55317;BME280;41178;48.956;8.130;2024-01-11T08:17:03;100231.28;;;-3.17;47.01
55317;BME280;41178;48.956;8.130;2024-01-11T08:22:06;100581.38;;;-4.32;47.79
55317;BME280;41178;48.956;8.130;2024-01-11T08:27:08;100337.13;;;-3.22;47.08
55317;BME280;41178;48.956;8.130;2024-01-11T08:32:10;100245.59;;;-2.45;45.95
55317;BME280;41178;48.956;8.130;2024-01-11T08:37:24;100403.84;;;-2.16;45.15
55317;BME280;41178;48.956;8.130;2024-01-11T08:42:26;100398.38;;;-2.43;46.16
55317;BME280;41178;48.956;8.130;2024-01-11T08:47:28;100685.56;;;-3.09;45.77
55317;BME280;41178;48.956;8.130;2024-01-11T08:52:30;100494.38;;;-2.40;45.68
55317;BME280;41178;48.956;8.130;2024-01-11T08:57:31;100322.88;;;-1.18;44.61
55317;BME280;41178;48.956;8.130;2024-01-11T09:02:33;100423.38;;;-2.05;46.10
55317;BME280;41178;48.956;8.130;2024-01-11T09:07:35;100385.16;;;-1.20;44.34
55317;BME280;41178;48.956;8.130;2024-01-11T09:12:37;100587.81;;;-1.74;44.80
55317;BME280;41178;48.956;8.130;2024-01-11T09:17:39;100338.03;;;-0.38;44.09
55317;BME280;41178;48.956;8.130;2024-01-11T09:22:41;100627.72;;;-2.01;45.49
55317;BME280;41178;48.956;8.130;2024-01-11T09:27:43;100419.88;;;-0.72;44.06
55317;BME280;41178;48.956;8.130;2024-01-11T09:32:45;100689.25;;;-1.90;44.79
55317;BME280;41178;48.956;8.130;2024-01-11T09:37:46;100735.75;;;-2.27;45.25
55317;BME280;41178;48.956;8.130;2024-01-11T09:42:48;100933.72;;;-3.55;46.72
55317;BME280;41178;48.956;8.130;2024-01-11T09:47:51;100462.00;;;-1.61;46.04
55317;BME280;41178;48.956;8.130;2024-01-11T09:52:54;100683.25;;;-2.43;45.92
55317;BME280;41178;48.956;8.130;2024-01-11T09:57:59;100586.69;;;-1.70;45.42
55317;BME280;41178;48.956;8.130;2024-01-11T10:03:01;100457.16;;;-0.94;44.75
55317;BME280;41178;48.956;8.130;2024-01-11T10:08:03;100573.28;;;-1.33;44.55
55317;BME280;41178;48.956;8.130;2024-01-11T10:13:05;100480.59;;;-0.91;44.42
55317;BME280;41178;48.956;8.130;2024-01-11T10:18:06;100447.28;;;-0.47;43.99
55317;BME280;41178;48.956;8.130;2024-01-11T10:23:08;100593.66;;;-1.23;44.38
55317;BME280;41178;48.956;8.130;2024-01-11T10:28:13;100556.56;;;-1.17;44.23
55317;BME280;41178;48.956;8.130;2024-01-11T10:33:14;100660.69;;;-1.15;43.86
55317;BME280;41178;48.956;8.130;2024-01-11T10:38:17;100538.47;;;-0.48;43.76
55317;BME280;41178;48.956;8.130;2024-01-11T10:43:21;100604.22;;;0.10;42.90
55317;BME280;41178;48.956;8.130;2024-01-11T10:48:25;100867.44;;;-1.68;44.11
55317;BME280;41178;48.956;8.130;2024-01-11T10:53:43;100690.72;;;-0.73;43.74
55317;BME280;41178;48.956;8.130;2024-01-11T10:58:47;100766.97;;;-1.05;44.15
55317;BME280;41178;48.956;8.130;2024-01-11T11:06:13;100681.69;;;-1.31;45.39
55317;BME280;41178;48.956;8.130;2024-01-11T11:11:17;100701.44;;;-1.56;44.80
55317;BME280;41178;48.956;8.130;2024-01-11T11:16:19;100544.78;;;-0.95;44.77
55317;BME280;41178;48.956;8.130;2024-01-11T11:21:21;100682.47;;;-1.45;44.92
55317;BME280;41178;48.956;8.130;2024-01-11T11:26:25;100409.34;;;0.11;43.89
55317;BME280;41178;48.956;8.130;2024-01-11T11:31:44;100487.56;;;-0.18;43.78
55317;BME280;41178;48.956;8.130;2024-01-11T11:36:55;100620.75;;;-1.06;45.05
55317;BME280;41178;48.956;8.130;2024-01-11T11:41:58;100553.22;;;-0.16;43.64
55317;BME280;41178;48.956;8.130;2024-01-11T11:47:22;100507.03;;;0.61;42.67
55317;BME280;41178;48.956;8.130;2024-01-11T11:52:25;100740.56;;;-0.56;44.10
55317;BME280;41178;48.956;8.130;2024-01-11T11:57:27;100606.09;;;-0.35;44.15
55317;BME280;41178;48.956;8.130;2024-01-11T12:02:30;100643.59;;;-0.17;43.60
55317;BME280;41178;48.956;8.130;2024-01-11T12:07:33;100896.13;;;-1.30;43.98
55317;BME280;41178;48.956;8.130;2024-01-11T12:12:35;100566.25;;;0.14;43.29
55317;BME280;41178;48.956;8.130;2024-01-11T12:17:37;100584.06;;;0.23;43.51
55317;BME280;41178;48.956;8.130;2024-01-11T12:22:44;100757.88;;;-0.84;44.66
55317;BME280;41178;48.956;8.130;2024-01-11T12:27:46;100659.09;;;0.02;43.33
55317;BME280;41178;48.956;8.130;2024-01-11T12:32:47;100540.59;;;0.30;43.50
55317;BME280;41178;48.956;8.130;2024-01-11T12:38:03;100533.06;;;0.39;43.69
55317;BME280;41178;48.956;8.130;2024-01-11T12:43:08;100732.53;;;-0.38;43.76
55317;BME280;41178;48.956;8.130;2024-01-11T12:48:10;100703.47;;;-0.07;43.17
55317;BME280;41178;48.956;8.130;2024-01-11T12:53:15;100656.84;;;0.10;43.62
55317;BME280;41178;48.956;8.130;2024-01-11T12:58:20;100665.97;;;0.04;43.35
55317;BME280;41178;48.956;8.130;2024-01-11T13:03:28;100435.19;;;0.85;43.37
55317;BME280;41178;48.956;8.130;2024-01-11T13:08:32;100680.66;;;-0.06;43.07
55317;BME280;41178;48.956;8.130;2024-01-11T13:13:38;100565.59;;;0.65;42.61
55317;BME280;41178;48.956;8.130;2024-01-11T13:18:40;100586.13;;;0.60;42.82
55317;BME280;41178;48.956;8.130;2024-01-11T13:23:42;100526.66;;;0.96;42.35
55317;BME280;41178;48.956;8.130;2024-01-11T13:28:44;100574.31;;;0.93;42.29
55317;BME280;41178;48.956;8.130;2024-01-11T13:33:45;100604.06;;;0.67;42.38
55317;BME280;41178;48.956;8.130;2024-01-11T13:38:47;100782.38;;;-0.21;43.47
55317;BME280;41178;48.956;8.130;2024-01-11T13:43:50;100621.00;;;0.91;41.76
55317;BME280;41178;48.956;8.130;2024-01-11T13:48:52;100668.81;;;0.57;41.91
55317;BME280;41178;48.956;8.130;2024-01-11T13:53:54;100740.63;;;0.46;41.60
55317;BME280;41178;48.956;8.130;2024-01-11T13:58:56;100699.63;;;0.84;41.63
55317;BME280;41178;48.956;8.130;2024-01-11T14:03:58;100791.25;;;0.93;41.30
55317;BME280;41178;48.956;8.130;2024-01-11T14:08:59;100712.56;;;1.56;41.06
55317;BME280;41178;48.956;8.130;2024-01-11T14:14:04;100847.47;;;0.50;42.02
55317;BME280;41178;48.956;8.130;2024-01-11T14:19:05;100953.44;;;-0.07;42.44
55317;BME280;41178;48.956;8.130;2024-01-11T14:24:08;100793.38;;;0.59;41.88
55317;BME280;41178;48.956;8.130;2024-01-11T14:29:10;100566.22;;;1.86;41.33
55317;BME280;41178;48.956;8.130;2024-01-11T14:34:12;100785.81;;;1.38;40.95
55317;BME280;41178;48.956;8.130;2024-01-11T14:39:14;100711.91;;;1.65;40.57
55317;BME280;41178;48.956;8.130;2024-01-11T14:44:16;100786.41;;;2.47;39.53
55317;BME280;41178;48.956;8.130;2024-01-11T14:49:18;100817.06;;;2.37;39.61
55317;BME280;41178;48.956;8.130;2024-01-11T14:54:20;101005.16;;;0.57;41.08
55317;BME280;41178;48.956;8.130;2024-01-11T14:59:22;100922.88;;;0.82;41.41
55317;BME280;41178;48.956;8.130;2024-01-11T15:04:24;100724.72;;;1.17;41.22
55317;BME280;41178;48.956;8.130;2024-01-11T15:09:25;100946.53;;;0.53;41.28
55317;BME280;41178;48.956;8.130;2024-01-11T15:14:27;100892.75;;;0.86;41.21
55317;BME280;41178;48.956;8.130;2024-01-11T15:19:29;100748.56;;;1.83;40.04
55317;BME280;41178;48.956;8.130;2024-01-11T15:24:31;100936.25;;;1.36;39.72
55317;BME280;41178;48.956;8.130;2024-01-11T15:29:33;100775.91;;;1.94;39.64
55317;BME280;41178;48.956;8.130;2024-01-11T15:34:35;100942.09;;;1.41;39.75
55317;BME280;41178;48.956;8.130;2024-01-11T15:39:37;100966.38;;;1.03;40.12
55317;BME280;41178;48.956;8.130;2024-01-11T15:44:39;100819.66;;;1.17;40.96
55317;BME280;41178;48.956;8.130;2024-01-11T15:49:41;101016.88;;;0.05;41.83
55317;BME280;41178;48.956;8.130;2024-01-11T15:54:43;100817.38;;;0.83;41.45
55317;BME280;41178;48.956;8.130;2024-01-11T15:59:45;100960.22;;;0.29;41.81
55317;BME280;41178;48.956;8.130;2024-01-11T16:04:46;100819.50;;;1.05;41.14
55317;BME280;41178;48.956;8.130;2024-01-11T16:09:48;100861.97;;;0.72;41.58
55317;BME280;41178;48.956;8.130;2024-01-11T16:14:51;100827.00;;;1.12;41.05
55317;BME280;41178;48.956;8.130;2024-01-11T16:19:55;100805.31;;;1.35;40.80
55317;BME280;41178;48.956;8.130;2024-01-11T16:24:57;100850.25;;;1.19;40.85
55317;BME280;41178;48.956;8.130;2024-01-11T16:29:58;101095.34;;;-0.35;42.29
55317;BME280;41178;48.956;8.130;2024-01-11T16:35:04;100727.56;;;1.94;40.18
55317;BME280;41178;48.956;8.130;2024-01-11T16:40:06;100939.25;;;0.87;41.22
55317;BME280;41178;48.956;8.130;2024-01-11T16:45:12;100835.09;;;1.65;40.31
55317;BME280;41178;48.956;8.130;2024-01-11T16:50:13;101073.44;;;0.76;40.62
55317;BME280;41178;48.956;8.130;2024-01-11T16:55:15;100903.84;;;1.20;40.58
55317;BME280;41178;48.956;8.130;2024-01-11T17:00:17;100830.38;;;0.86;41.78
55317;BME280;41178;48.956;8.130;2024-01-11T17:05:20;100913.28;;;1.24;40.42
55317;BME280;41178;48.956;8.130;2024-01-11T17:10:22;100837.00;;;1.63;40.28
55317;BME280;41178;48.956;8.130;2024-01-11T17:15:24;100883.31;;;1.39;40.19
55317;BME280;41178;48.956;8.130;2024-01-11T17:20:28;100782.47;;;1.89;39.96
55317;BME280;41178;48.956;8.130;2024-01-11T17:25:30;101065.66;;;0.58;41.13
55317;BME280;41178;48.956;8.130;2024-01-11T17:30:31;101023.84;;;0.82;40.69
55317;BME280;41178;48.956;8.130;2024-01-11T17:35:33;101002.91;;;0.35;42.11
55317;BME280;41178;48.956;8.130;2024-01-11T17:40:35;100921.66;;;0.73;41.50
55317;BME280;41178;48.956;8.130;2024-01-11T17:45:36;100908.94;;;1.09;40.59
55317;BME280;41178;48.956;8.130;2024-01-11T17:50:41;101112.09;;;-0.20;42.13
55317;BME280;41178;48.956;8.130;2024-01-11T17:55:43;101150.88;;;-0.59;42.74
55317;BME280;41178;48.956;8.130;2024-01-11T18:00:47;100862.25;;;0.82;41.31
55317;BME280;41178;48.956;8.130;2024-01-11T18:05:48;100948.22;;;0.54;41.34
55317;BME280;41178;48.956;8.130;2024-01-11T18:10:51;101023.47;;;0.12;41.52
55317;BME280;41178;48.956;8.130;2024-01-11T18:15:52;101022.47;;;-0.01;41.85
55317;BME280;41178;48.956;8.130;2024-01-11T18:20:54;100919.16;;;0.56;41.59
55317;BME280;41178;48.956;8.130;2024-01-11T18:25:56;101064.41;;;0.02;41.75
55317;BME280;41178;48.956;8.130;2024-01-11T18:30:57;100922.69;;;0.40;41.71
55317;BME280;41178;48.956;8.130;2024-01-11T18:35:59;100858.00;;;0.50;41.74
55317;BME280;41178;48.956;8.130;2024-01-11T18:41:01;100884.91;;;0.56;41.67
55317;BME280;41178;48.956;8.130;2024-01-11T18:46:03;100871.66;;;1.00;40.20
55317;BME280;41178;48.956;8.130;2024-01-11T18:51:04;101133.66;;;-0.30;41.66
55317;BME280;41178;48.956;8.130;2024-01-11T18:56:14;101038.34;;;-0.19;41.87
55317;BME280;41178;48.956;8.130;2024-01-11T19:01:19;100813.88;;;0.83;40.98
55317;BME280;41178;48.956;8.130;2024-01-11T19:06:26;100978.31;;;0.20;41.46
55317;BME280;41178;48.956;8.130;2024-01-11T19:11:29;100933.97;;;0.12;41.99
55317;BME280;41178;48.956;8.130;2024-01-11T19:16:31;100769.97;;;0.55;41.72
55317;BME280;41178;48.956;8.130;2024-01-11T19:21:33;101081.72;;;-0.44;42.08
55317;BME280;41178;48.956;8.130;2024-01-11T19:26:43;100961.72;;;0.34;41.14
55317;BME280;41178;48.956;8.130;2024-01-11T19:31:49;100747.31;;;0.94;41.34
55317;BME280;41178;48.956;8.130;2024-01-11T19:36:51;100939.72;;;0.35;40.96
55317;BME280;41178;48.956;8.130;2024-01-11T19:41:52;100801.47;;;1.54;39.72
55317;BME280;41178;48.956;8.130;2024-01-11T19:46:54;100823.13;;;1.59;39.34
55317;BME280;41178;48.956;8.130;2024-01-11T19:51:57;100992.41;;;0.79;40.29
55317;BME280;41178;48.956;8.130;2024-01-11T19:57:00;100780.91;;;1.46;40.29
55317;BME280;41178;48.956;8.130;2024-01-11T20:02:03;101101.25;;;-0.14;41.68
55317;BME280;41178;48.956;8.130;2024-01-11T20:07:04;100929.03;;;0.52;41.13
55317;BME280;41178;48.956;8.130;2024-01-11T20:12:07;100927.97;;;0.85;40.49
55317;BME280;41178;48.956;8.130;2024-01-11T20:17:09;101003.44;;;-0.07;41.99
55317;BME280;41178;48.956;8.130;2024-01-11T20:22:11;100795.66;;;1.76;39.73
55317;BME280;41178;48.956;8.130;2024-01-11T20:27:12;100966.41;;;0.59;41.22
55317;BME280;41178;48.956;8.130;2024-01-11T20:32:14;101003.63;;;0.53;41.31
55317;BME280;41178;48.956;8.130;2024-01-11T20:37:16;100949.69;;;0.74;41.37
55317;BME280;41178;48.956;8.130;2024-01-11T20:42:20;100891.44;;;1.08;40.79
55317;BME280;41178;48.956;8.130;2024-01-11T20:47:21;100980.91;;;0.36;41.71
55317;BME280;41178;48.956;8.130;2024-01-11T20:52:24;100823.81;;;1.06;41.41
55317;BME280;41178;48.956;8.130;2024-01-11T20:57:27;100894.50;;;1.57;39.47
55317;BME280;41178;48.956;8.130;2024-01-11T21:02:29;101075.53;;;0.39;41.26
55317;BME280;41178;48.956;8.130;2024-01-11T21:07:31;100794.53;;;1.93;39.74
55317;BME280;41178;48.956;8.130;2024-01-11T21:12:32;101068.72;;;0.66;41.03
55317;BME280;41178;48.956;8.130;2024-01-11T21:17:35;100901.59;;;1.42;40.34
55317;BME280;41178;48.956;8.130;2024-01-11T21:22:37;101083.53;;;0.53;41.53
55317;BME280;41178;48.956;8.130;2024-01-11T21:27:39;101019.50;;;0.81;41.53
55317;BME280;41178;48.956;8.130;2024-01-11T21:32:41;100933.50;;;1.23;40.53
55317;BME280;41178;48.956;8.130;2024-01-11T21:37:43;100884.66;;;0.89;41.62
55317;BME280;41178;48.956;8.130;2024-01-11T21:42:48;101006.47;;;0.49;41.49
55317;BME280;41178;48.956;8.130;2024-01-11T21:47:49;100997.50;;;0.22;41.65
55317;BME280;41178;48.956;8.130;2024-01-11T21:52:53;101095.75;;;-0.43;42.80
55317;BME280;41178;48.956;8.130;2024-01-11T21:57:55;100914.97;;;0.37;41.93
55317;BME280;41178;48.956;8.130;2024-01-11T22:02:58;100980.84;;;0.21;41.94
55317;BME280;41178;48.956;8.130;2024-01-11T22:08:00;100880.50;;;1.14;40.41
55317;BME280;41178;48.956;8.130;2024-01-11T22:13:01;100948.03;;;0.43;41.70
55317;BME280;41178;48.956;8.130;2024-01-11T22:18:04;101099.13;;;-0.08;41.63
55317;BME280;41178;48.956;8.130;2024-01-11T22:23:06;100999.06;;;-0.06;42.13
55317;BME280;41178;48.956;8.130;2024-01-11T22:28:08;101017.81;;;-0.28;42.62
55317;BME280;41178;48.956;8.130;2024-01-11T22:33:09;101107.28;;;-0.46;42.08
55317;BME280;41178;48.956;8.130;2024-01-11T22:38:15;100861.66;;;0.34;42.05
55317;BME280;41178;48.956;8.130;2024-01-11T22:43:17;100865.19;;;0.77;41.42
55317;BME280;41178;48.956;8.130;2024-01-11T22:48:19;100911.09;;;0.73;40.78
55317;BME280;41178;48.956;8.130;2024-01-11T22:53:21;100926.44;;;0.66;41.34
55317;BME280;41178;48.956;8.130;2024-01-11T22:58:22;101079.06;;;-0.26;42.59
55317;BME280;41178;48.956;8.130;2024-01-11T23:03:24;101020.53;;;0.02;41.68
55317;BME280;41178;48.956;8.130;2024-01-11T23:08:26;100788.16;;;1.28;40.49
55317;BME280;41178;48.956;8.130;2024-01-11T23:13:29;101009.75;;;0.53;41.08
55317;BME280;41178;48.956;8.130;2024-01-11T23:18:31;100920.34;;;0.80;41.08
55317;BME280;41178;48.956;8.130;2024-01-11T23:23:33;100904.81;;;0.90;40.99
55317;BME280;41178;48.956;8.130;2024-01-11T23:28:35;101206.09;;;-0.94;43.18
55317;BME280;41178;48.956;8.130;2024-01-11T23:33:37;101237.56;;;-0.75;42.09
55317;BME280;41178;48.956;8.130;2024-01-11T23:38:39;101128.47;;;-0.31;41.74
55317;BME280;41178;48.956;8.130;2024-01-11T23:43:41;101058.88;;;-0.76;43.17
55317;BME280;41178;48.956;8.130;2024-01-11T23:48:43;100847.44;;;-0.09;43.12
55317;BME280;41178;48.956;8.130;2024-01-11T23:53:44;100948.53;;;-0.94;43.83
55317;BME280;41178;48.956;8.130;2024-01-11T23:58:46;100834.25;;;-0.23;42.84
